sensor_id;sensor_type;location;lat;lon;timestamp;P1;durP1;ratioP1;P2;durP2;ratioP2
79346;SDS011;68815;48.810;44.482;2023-10-13T00:03:01;4.4;;;1.5;;
79346;SDS011;68815;48.810;44.482;2023-10-13T00:06:02;3.2;;;1.3;;
79346;SDS011;68815;48.810;44.482;2023-10-13T00:09:04;3.7;;;1.6;;
79346;SDS011;68815;48.810;44.482;2023-10-13T00:12:06;3.6;;;1.3;;
79346;SDS011;68815;48.810;44.482;2023-10-13T00:15:09;3.5;;;1.7;;
79346;SDS011;68815;48.810;44.482;2023-10-13T00:18:11;3.7;;;1.5;;
79346;SDS011;68815;48.810;44.482;2023-10-13T00:21:13;3.4;;;1.5;;
79346;SDS011;68815;48.810;44.482;2023-10-13T00:24:15;3.4;;;1.4;;
79346;SDS011;68815;48.810;44.482;2023-10-13T00:27:17;3.9;;;1.5;;
79346;SDS011;68815;48.810;44.482;2023-10-13T00:30:20;4.4;;;1.5;;
79346;SDS011;68815;48.810;44.482;2023-10-13T00:33:21;4.2;;;1.6;;
79346;SDS011;68815;48.810;44.482;2023-10-13T00:36:23;5.7;;;1.7;;
79346;SDS011;68815;48.810;44.482;2023-10-13T00:39:24;3.9;;;1.7;;
79346;SDS011;68815;48.810;44.482;2023-10-13T00:42:26;3.5;;;1.4;;
79346;SDS011;68815;48.810;44.482;2023-10-13T00:45:27;4.6;;;1.7;;
79346;SDS011;68815;48.810;44.482;2023-10-13T00:48:30;4.3;;;1.5;;
79346;SDS011;68815;48.810;44.482;2023-10-13T00:51:33;3.8;;;1.5;;
79346;SDS011;68815;48.810;44.482;2023-10-13T00:54:34;4.2;;;1.6;;
79346;SDS011;68815;48.810;44.482;2023-10-13T00:57:38;3.5;;;1.3;;
79346;SDS011;68815;48.810;44.482;2023-10-13T01:00:41;3.8;;;1.6;;
79346;SDS011;68815;48.810;44.482;2023-10-13T01:03:44;4;;;1.5;;
79346;SDS011;68815;48.810;44.482;2023-10-13T01:06:46;5.1;;;1.6;;
79346;SDS011;68815;48.810;44.482;2023-10-13T01:09:47;3.6;;;1.4;;
79346;SDS011;68815;48.810;44.482;2023-10-13T01:12:49;3.7;;;1.5;;
79346;SDS011;68815;48.810;44.482;2023-10-13T01:15:50;8;;;1.8;;
79346;SDS011;68815;48.810;44.482;2023-10-13T01:18:52;4.5;;;1.6;;
79346;SDS011;68815;48.810;44.482;2023-10-13T01:21:53;5.1;;;1.5;;
79346;SDS011;68815;48.810;44.482;2023-10-13T01:24:55;3.9;;;1.6;;
79346;SDS011;68815;48.810;44.482;2023-10-13T01:27:57;3.7;;;1.5;;
79346;SDS011;68815;48.810;44.482;2023-10-13T01:30:58;5.2;;;1.5;;
79346;SDS011;68815;48.810;44.482;2023-10-13T01:34:00;3.7;;;1.6;;
79346;SDS011;68815;48.810;44.482;2023-10-13T01:37:02;4.1;;;1.6;;
79346;SDS011;68815;48.810;44.482;2023-10-13T01:40:04;4.7;;;1.8;;
79346;SDS011;68815;48.810;44.482;2023-10-13T01:43:06;4.4;;;1.8;;
79346;SDS011;68815;48.810;44.482;2023-10-13T01:46:08;4;;;1.8;;
79346;SDS011;68815;48.810;44.482;2023-10-13T01:49:10;3.9;;;1.6;;
79346;SDS011;68815;48.810;44.482;2023-10-13T01:52:11;4.4;;;1.6;;
79346;SDS011;68815;48.810;44.482;2023-10-13T01:55:13;4.4;;;1.6;;
79346;SDS011;68815;48.810;44.482;2023-10-13T01:58:15;3.8;;;1.5;;
79346;SDS011;68815;48.810;44.482;2023-10-13T02:01:17;4.3;;;1.5;;
79346;SDS011;68815;48.810;44.482;2023-10-13T02:04:19;6.2;;;1.7;;
79346;SDS011;68815;48.810;44.482;2023-10-13T02:07:21;4;;;1.5;;
79346;SDS011;68815;48.810;44.482;2023-10-13T02:10:23;3.8;;;1.5;;
79346;SDS011;68815;48.810;44.482;2023-10-13T02:13:25;4.5;;;1.7;;
79346;SDS011;68815;48.810;44.482;2023-10-13T02:16:28;6.1;;;1.7;;
79346;SDS011;68815;48.810;44.482;2023-10-13T02:19:29;4.3;;;1.6;;
79346;SDS011;68815;48.810;44.482;2023-10-13T02:22:31;3.7;;;1.5;;
79346;SDS011;68815;48.810;44.482;2023-10-13T02:25:34;4.8;;;1.6;;
79346;SDS011;68815;48.810;44.482;2023-10-13T02:28:36;6.3;;;1.5;;
79346;SDS011;68815;48.810;44.482;2023-10-13T02:31:38;5.4;;;1.7;;
79346;SDS011;68815;48.810;44.482;2023-10-13T02:34:41;5.8;;;1.5;;
79346;SDS011;68815;48.810;44.482;2023-10-13T02:37:43;4.9;;;1.5;;
79346;SDS011;68815;48.810;44.482;2023-10-13T02:40:44;3.7;;;1.5;;
79346;SDS011;68815;48.810;44.482;2023-10-13T02:43:46;6.2;;;1.6;;
79346;SDS011;68815;48.810;44.482;2023-10-13T02:46:47;4.5;;;1.6;;
79346;SDS011;68815;48.810;44.482;2023-10-13T02:49:49;6;;;1.6;;
79346;SDS011;68815;48.810;44.482;2023-10-13T02:52:51;5.1;;;1.7;;
79346;SDS011;68815;48.810;44.482;2023-10-13T02:55:53;3.6;;;1.4;;
79346;SDS011;68815;48.810;44.482;2023-10-13T02:58:56;4.2;;;1.5;;
79346;SDS011;68815;48.810;44.482;2023-10-13T03:01:57;4.2;;;1.6;;
79346;SDS011;68815;48.810;44.482;2023-10-13T03:04:59;3.6;;;1.4;;
79346;SDS011;68815;48.810;44.482;2023-10-13T03:08:01;6.1;;;1.6;;
79346;SDS011;68815;48.810;44.482;2023-10-13T03:11:03;4.9;;;1.6;;
79346;SDS011;68815;48.810;44.482;2023-10-13T03:14:04;3.9;;;1.4;;
79346;SDS011;68815;48.810;44.482;2023-10-13T03:17:06;5.3;;;1.6;;
79346;SDS011;68815;48.810;44.482;2023-10-13T03:20:08;5.1;;;1.5;;
79346;SDS011;68815;48.810;44.482;2023-10-13T03:23:10;5.7;;;1.4;;
79346;SDS011;68815;48.810;44.482;2023-10-13T03:26:11;4.7;;;1.4;;
79346;SDS011;68815;48.810;44.482;2023-10-13T03:29:13;3.4;;;1.2;;
79346;SDS011;68815;48.810;44.482;2023-10-13T03:32:15;3.9;;;1.3;;
79346;SDS011;68815;48.810;44.482;2023-10-13T03:35:17;3.1;;;1.2;;
79346;SDS011;68815;48.810;44.482;2023-10-13T03:38:18;5.8;;;1.2;;
79346;SDS011;68815;48.810;44.482;2023-10-13T03:41:20;3.8;;;1.5;;
79346;SDS011;68815;48.810;44.482;2023-10-13T03:44:22;5.3;;;1.7;;
79346;SDS011;68815;48.810;44.482;2023-10-13T03:47:23;5.6;;;1.7;;
79346;SDS011;68815;48.810;44.482;2023-10-13T03:50:25;4.9;;;1.4;;
79346;SDS011;68815;48.810;44.482;2023-10-13T03:53:27;5.1;;;1.9;;
79346;SDS011;68815;48.810;44.482;2023-10-13T03:56:28;4.9;;;1.6;;
79346;SDS011;68815;48.810;44.482;2023-10-13T03:59:30;4.4;;;1.5;;
79346;SDS011;68815;48.810;44.482;2023-10-13T04:02:31;4.8;;;1.8;;
79346;SDS011;68815;48.810;44.482;2023-10-13T04:05:33;3.4;;;1.3;;
79346;SDS011;68815;48.810;44.482;2023-10-13T04:08:37;5.3;;;1.4;;
79346;SDS011;68815;48.810;44.482;2023-10-13T04:11:39;4.1;;;1.5;;
79346;SDS011;68815;48.810;44.482;2023-10-13T04:14:41;4;;;1.4;;
79346;SDS011;68815;48.810;44.482;2023-10-13T04:17:44;3.4;;;1.6;;
79346;SDS011;68815;48.810;44.482;2023-10-13T04:20:52;4.5;;;1.5;;
79346;SDS011;68815;48.810;44.482;2023-10-13T04:23:55;3.8;;;1.5;;
79346;SDS011;68815;48.810;44.482;2023-10-13T04:26:56;5;;;1.3;;
79346;SDS011;68815;48.810;44.482;2023-10-13T04:29:58;4.1;;;1.3;;
79346;SDS011;68815;48.810;44.482;2023-10-13T04:33:02;5.3;;;1.6;;
79346;SDS011;68815;48.810;44.482;2023-10-13T04:36:05;3.9;;;1.4;;
79346;SDS011;68815;48.810;44.482;2023-10-13T04:39:08;4.4;;;1.6;;
79346;SDS011;68815;48.810;44.482;2023-10-13T04:42:09;7.6;;;1.5;;
79346;SDS011;68815;48.810;44.482;2023-10-13T04:45:11;4.1;;;1.9;;
79346;SDS011;68815;48.810;44.482;2023-10-13T04:48:12;3.7;;;1.5;;
79346;SDS011;68815;48.810;44.482;2023-10-13T04:51:14;4.5;;;1.6;;
79346;SDS011;68815;48.810;44.482;2023-10-13T04:54:15;4.1;;;1.9;;
79346;SDS011;68815;48.810;44.482;2023-10-13T04:57:18;3.7;;;1.6;;
79346;SDS011;68815;48.810;44.482;2023-10-13T05:00:20;4.1;;;1.9;;
79346;SDS011;68815;48.810;44.482;2023-10-13T05:03:22;3.8;;;1.7;;
79346;SDS011;68815;48.810;44.482;2023-10-13T05:06:24;4.6;;;1.8;;
79346;SDS011;68815;48.810;44.482;2023-10-13T05:09:28;6.7;;;2.3;;
79346;SDS011;68815;48.810;44.482;2023-10-13T05:12:29;4.5;;;1.7;;
79346;SDS011;68815;48.810;44.482;2023-10-13T05:15:31;3.8;;;1.9;;
79346;SDS011;68815;48.810;44.482;2023-10-13T05:18:32;5.9;;;2.1;;
79346;SDS011;68815;48.810;44.482;2023-10-13T05:21:34;4.8;;;2.2;;
79346;SDS011;68815;48.810;44.482;2023-10-13T05:24:36;6;;;2;;
79346;SDS011;68815;48.810;44.482;2023-10-13T05:27:38;4.8;;;2;;
79346;SDS011;68815;48.810;44.482;2023-10-13T05:30:39;5.1;;;1.8;;
79346;SDS011;68815;48.810;44.482;2023-10-13T05:33:41;5.4;;;1.8;;
79346;SDS011;68815;48.810;44.482;2023-10-13T05:36:43;5.3;;;2.1;;
79346;SDS011;68815;48.810;44.482;2023-10-13T05:39:44;3.8;;;1.6;;
79346;SDS011;68815;48.810;44.482;2023-10-13T05:42:46;6.8;;;1.9;;
79346;SDS011;68815;48.810;44.482;2023-10-13T05:45:48;4.7;;;1.6;;
79346;SDS011;68815;48.810;44.482;2023-10-13T05:48:49;5.4;;;1.8;;
79346;SDS011;68815;48.810;44.482;2023-10-13T05:51:51;6.2;;;1.8;;
79346;SDS011;68815;48.810;44.482;2023-10-13T05:54:53;6.3;;;1.6;;
79346;SDS011;68815;48.810;44.482;2023-10-13T05:57:54;4.9;;;1.9;;
79346;SDS011;68815;48.810;44.482;2023-10-13T06:00:56;5.5;;;1.8;;
79346;SDS011;68815;48.810;44.482;2023-10-13T06:03:57;6.6;;;2;;
79346;SDS011;68815;48.810;44.482;2023-10-13T06:06:58;5.7;;;1.8;;
79346;SDS011;68815;48.810;44.482;2023-10-13T06:10:00;4.7;;;1.8;;
79346;SDS011;68815;48.810;44.482;2023-10-13T06:13:02;4.3;;;1.9;;
79346;SDS011;68815;48.810;44.482;2023-10-13T06:16:04;10.4;;;4.7;;
79346;SDS011;68815;48.810;44.482;2023-10-13T06:19:06;7.3;;;2.9;;
79346;SDS011;68815;48.810;44.482;2023-10-13T06:22:08;7.2;;;3.4;;
79346;SDS011;68815;48.810;44.482;2023-10-13T06:25:10;6.7;;;2.6;;
79346;SDS011;68815;48.810;44.482;2023-10-13T06:28:11;5.1;;;2;;
79346;SDS011;68815;48.810;44.482;2023-10-13T06:31:13;8.7;;;3;;
79346;SDS011;68815;48.810;44.482;2023-10-13T06:34:15;6.3;;;2.5;;
79346;SDS011;68815;48.810;44.482;2023-10-13T06:37:16;6;;;3;;
79346;SDS011;68815;48.810;44.482;2023-10-13T06:40:18;7.5;;;2.7;;
79346;SDS011;68815;48.810;44.482;2023-10-13T06:43:20;5.5;;;2.7;;
79346;SDS011;68815;48.810;44.482;2023-10-13T06:46:21;7.7;;;3.3;;
79346;SDS011;68815;48.810;44.482;2023-10-13T06:49:23;12.9;;;5.4;;
79346;SDS011;68815;48.810;44.482;2023-10-13T06:52:24;7.3;;;3.1;;
79346;SDS011;68815;48.810;44.482;2023-10-13T06:55:26;6.4;;;2.3;;
79346;SDS011;68815;48.810;44.482;2023-10-13T06:58:27;5.6;;;2;;
79346;SDS011;68815;48.810;44.482;2023-10-13T07:01:29;5.4;;;2.5;;
79346;SDS011;68815;48.810;44.482;2023-10-13T07:04:30;18.7;;;8.3;;
79346;SDS011;68815;48.810;44.482;2023-10-13T07:07:32;7.5;;;3.5;;
79346;SDS011;68815;48.810;44.482;2023-10-13T07:10:34;5.7;;;2.2;;
79346;SDS011;68815;48.810;44.482;2023-10-13T07:13:35;4.7;;;2.1;;
79346;SDS011;68815;48.810;44.482;2023-10-13T07:16:42;7;;;2.5;;
79346;SDS011;68815;48.810;44.482;2023-10-13T07:19:45;8.7;;;2.4;;
79346;SDS011;68815;48.810;44.482;2023-10-13T07:22:47;5.9;;;2.1;;
79346;SDS011;68815;48.810;44.482;2023-10-13T07:25:52;5.5;;;2.3;;
79346;SDS011;68815;48.810;44.482;2023-10-13T07:28:55;6.7;;;2.2;;
79346;SDS011;68815;48.810;44.482;2023-10-13T07:31:57;6.2;;;2.4;;
79346;SDS011;68815;48.810;44.482;2023-10-13T07:34:59;6.9;;;2.2;;
79346;SDS011;68815;48.810;44.482;2023-10-13T07:38:01;10.2;;;4.6;;
79346;SDS011;68815;48.810;44.482;2023-10-13T07:41:03;12.4;;;3.7;;
79346;SDS011;68815;48.810;44.482;2023-10-13T07:44:05;6.3;;;2.9;;
79346;SDS011;68815;48.810;44.482;2023-10-13T07:47:07;6.4;;;2.8;;
79346;SDS011;68815;48.810;44.482;2023-10-13T07:50:09;7;;;2.6;;
79346;SDS011;68815;48.810;44.482;2023-10-13T07:53:11;6.3;;;2.3;;
79346;SDS011;68815;48.810;44.482;2023-10-13T07:56:12;5.8;;;2.4;;
79346;SDS011;68815;48.810;44.482;2023-10-13T07:59:14;8.6;;;4.3;;
79346;SDS011;68815;48.810;44.482;2023-10-13T08:02:16;13.3;;;4.7;;
79346;SDS011;68815;48.810;44.482;2023-10-13T08:05:18;8.2;;;3.5;;
79346;SDS011;68815;48.810;44.482;2023-10-13T08:08:19;10.3;;;3.1;;
79346;SDS011;68815;48.810;44.482;2023-10-13T08:11:21;10.8;;;4.7;;
79346;SDS011;68815;48.810;44.482;2023-10-13T08:14:23;8.7;;;2.9;;
79346;SDS011;68815;48.810;44.482;2023-10-13T08:17:25;6.5;;;2.7;;
79346;SDS011;68815;48.810;44.482;2023-10-13T08:20:26;9.4;;;2.9;;
79346;SDS011;68815;48.810;44.482;2023-10-13T08:23:28;7.3;;;2.5;;
79346;SDS011;68815;48.810;44.482;2023-10-13T08:26:30;6.6;;;2.2;;
79346;SDS011;68815;48.810;44.482;2023-10-13T08:29:33;6.6;;;2.4;;
79346;SDS011;68815;48.810;44.482;2023-10-13T08:32:34;6;;;2.2;;
79346;SDS011;68815;48.810;44.482;2023-10-13T08:35:36;6.3;;;2.1;;
79346;SDS011;68815;48.810;44.482;2023-10-13T08:38:37;5.2;;;2.1;;
79346;SDS011;68815;48.810;44.482;2023-10-13T08:41:39;6.6;;;2.1;;
79346;SDS011;68815;48.810;44.482;2023-10-13T08:44:44;7.3;;;2.1;;
79346;SDS011;68815;48.810;44.482;2023-10-13T08:47:47;6.4;;;2.3;;
79346;SDS011;68815;48.810;44.482;2023-10-13T08:50:50;5.8;;;2.5;;
79346;SDS011;68815;48.810;44.482;2023-10-13T08:53:53;5.7;;;2.3;;
79346;SDS011;68815;48.810;44.482;2023-10-13T08:56:58;7.1;;;2.3;;
79346;SDS011;68815;48.810;44.482;2023-10-13T08:59:59;5.9;;;2.4;;
79346;SDS011;68815;48.810;44.482;2023-10-13T09:03:03;7.6;;;2.4;;
79346;SDS011;68815;48.810;44.482;2023-10-13T09:06:10;5.4;;;2.3;;
79346;SDS011;68815;48.810;44.482;2023-10-13T09:09:14;7.8;;;2.8;;
79346;SDS011;68815;48.810;44.482;2023-10-13T09:12:17;5.7;;;2.6;;
79346;SDS011;68815;48.810;44.482;2023-10-13T09:15:27;7.3;;;2.6;;
79346;SDS011;68815;48.810;44.482;2023-10-13T09:18:30;6.7;;;2.5;;
79346;SDS011;68815;48.810;44.482;2023-10-13T09:21:37;5.9;;;2.7;;
79346;SDS011;68815;48.810;44.482;2023-10-13T09:24:39;8.2;;;3.1;;
79346;SDS011;68815;48.810;44.482;2023-10-13T09:27:41;9.7;;;3;;
79346;SDS011;68815;48.810;44.482;2023-10-13T09:30:43;7.6;;;3.3;;
79346;SDS011;68815;48.810;44.482;2023-10-13T09:33:45;8.4;;;3.1;;
79346;SDS011;68815;48.810;44.482;2023-10-13T09:36:48;7.4;;;2.7;;
79346;SDS011;68815;48.810;44.482;2023-10-13T09:39:50;5.9;;;2.7;;
79346;SDS011;68815;48.810;44.482;2023-10-13T09:42:52;7.5;;;2.7;;
79346;SDS011;68815;48.810;44.482;2023-10-13T09:45:56;6.5;;;2.7;;
79346;SDS011;68815;48.810;44.482;2023-10-13T09:49:04;5.9;;;2.3;;
79346;SDS011;68815;48.810;44.482;2023-10-13T09:52:14;10.7;;;2.9;;
79346;SDS011;68815;48.810;44.482;2023-10-13T09:55:19;11;;;3.2;;
79346;SDS011;68815;48.810;44.482;2023-10-13T09:58:28;6.1;;;2.4;;
79346;SDS011;68815;48.810;44.482;2023-10-13T10:01:32;8;;;2.9;;
79346;SDS011;68815;48.810;44.482;2023-10-13T10:04:34;5.3;;;2.3;;
79346;SDS011;68815;48.810;44.482;2023-10-13T10:07:36;4.6;;;2.2;;
79346;SDS011;68815;48.810;44.482;2023-10-13T10:10:44;5.8;;;2.3;;
79346;SDS011;68815;48.810;44.482;2023-10-13T10:13:56;5.9;;;2.3;;
79346;SDS011;68815;48.810;44.482;2023-10-13T10:17:09;8.1;;;2.2;;
79346;SDS011;68815;48.810;44.482;2023-10-13T10:20:12;5;;;2;;
79346;SDS011;68815;48.810;44.482;2023-10-13T10:23:23;7.1;;;2.1;;
79346;SDS011;68815;48.810;44.482;2023-10-13T10:26:26;5.8;;;2.6;;
79346;SDS011;68815;48.810;44.482;2023-10-13T10:29:28;7.1;;;2.8;;
79346;SDS011;68815;48.810;44.482;2023-10-13T10:32:32;5.4;;;2.2;;
79346;SDS011;68815;48.810;44.482;2023-10-13T10:35:35;6.4;;;2.2;;
79346;SDS011;68815;48.810;44.482;2023-10-13T10:38:38;5.4;;;2;;
79346;SDS011;68815;48.810;44.482;2023-10-13T10:41:39;6.4;;;2.2;;
79346;SDS011;68815;48.810;44.482;2023-10-13T10:44:41;9;;;2.3;;
79346;SDS011;68815;48.810;44.482;2023-10-13T10:47:47;5.8;;;2;;
79346;SDS011;68815;48.810;44.482;2023-10-13T10:50:51;5.4;;;2;;
79346;SDS011;68815;48.810;44.482;2023-10-13T10:53:53;5.1;;;1.9;;
79346;SDS011;68815;48.810;44.482;2023-10-13T10:56:55;7.4;;;2.1;;
79346;SDS011;68815;48.810;44.482;2023-10-13T10:59:59;5.8;;;2;;
79346;SDS011;68815;48.810;44.482;2023-10-13T11:03:02;6.4;;;2.3;;
79346;SDS011;68815;48.810;44.482;2023-10-13T11:06:04;5.3;;;1.9;;
79346;SDS011;68815;48.810;44.482;2023-10-13T11:09:06;6;;;2.1;;
79346;SDS011;68815;48.810;44.482;2023-10-13T11:12:09;6;;;2;;
79346;SDS011;68815;48.810;44.482;2023-10-13T11:15:12;6.6;;;2.1;;
79346;SDS011;68815;48.810;44.482;2023-10-13T11:18:14;6.4;;;2.3;;
79346;SDS011;68815;48.810;44.482;2023-10-13T11:21:17;6.6;;;2;;
79346;SDS011;68815;48.810;44.482;2023-10-13T11:24:19;8.1;;;2.3;;
79346;SDS011;68815;48.810;44.482;2023-10-13T11:27:22;6.9;;;2.2;;
79346;SDS011;68815;48.810;44.482;2023-10-13T11:30:25;6.5;;;2.5;;
79346;SDS011;68815;48.810;44.482;2023-10-13T11:33:29;8.2;;;2.5;;
79346;SDS011;68815;48.810;44.482;2023-10-13T11:36:30;5.9;;;2.1;;
79346;SDS011;68815;48.810;44.482;2023-10-13T11:39:32;6.4;;;2.1;;
79346;SDS011;68815;48.810;44.482;2023-10-13T11:42:36;5.7;;;2.4;;
79346;SDS011;68815;48.810;44.482;2023-10-13T11:45:38;6.2;;;2;;
79346;SDS011;68815;48.810;44.482;2023-10-13T11:48:43;6.5;;;2.2;;
79346;SDS011;68815;48.810;44.482;2023-10-13T11:51:47;6.9;;;2.6;;
79346;SDS011;68815;48.810;44.482;2023-10-13T11:54:51;5.8;;;2.2;;
79346;SDS011;68815;48.810;44.482;2023-10-13T11:57:53;7.4;;;2.6;;
79346;SDS011;68815;48.810;44.482;2023-10-13T12:00:56;6.5;;;2.4;;
79346;SDS011;68815;48.810;44.482;2023-10-13T12:03:58;7.1;;;2.6;;
79346;SDS011;68815;48.810;44.482;2023-10-13T12:07:02;8.1;;;2.5;;
79346;SDS011;68815;48.810;44.482;2023-10-13T12:10:04;9;;;2.3;;
79346;SDS011;68815;48.810;44.482;2023-10-13T12:13:06;7.8;;;2.3;;
79346;SDS011;68815;48.810;44.482;2023-10-13T12:16:09;7.9;;;2.6;;
79346;SDS011;68815;48.810;44.482;2023-10-13T12:19:11;7.4;;;2.6;;
79346;SDS011;68815;48.810;44.482;2023-10-13T12:22:13;5.4;;;2.3;;
79346;SDS011;68815;48.810;44.482;2023-10-13T12:25:15;8.2;;;2.4;;
79346;SDS011;68815;48.810;44.482;2023-10-13T12:28:19;5.7;;;2.4;;
79346;SDS011;68815;48.810;44.482;2023-10-13T12:31:21;7.4;;;2.6;;
79346;SDS011;68815;48.810;44.482;2023-10-13T12:34:23;7.4;;;2.6;;
79346;SDS011;68815;48.810;44.482;2023-10-13T12:37:32;7.8;;;2.7;;
79346;SDS011;68815;48.810;44.482;2023-10-13T12:40:34;7.2;;;2.9;;
79346;SDS011;68815;48.810;44.482;2023-10-13T12:43:37;8.3;;;3;;
79346;SDS011;68815;48.810;44.482;2023-10-13T12:46:44;9.8;;;3.6;;
79346;SDS011;68815;48.810;44.482;2023-10-13T12:49:46;9.4;;;3.7;;
79346;SDS011;68815;48.810;44.482;2023-10-13T12:52:48;8.4;;;3.4;;
79346;SDS011;68815;48.810;44.482;2023-10-13T12:55:51;13.4;;;4.2;;
79346;SDS011;68815;48.810;44.482;2023-10-13T12:58:54;11.6;;;4.1;;
79346;SDS011;68815;48.810;44.482;2023-10-13T13:01:56;9.8;;;3.4;;
79346;SDS011;68815;48.810;44.482;2023-10-13T13:05:00;11.3;;;3.7;;
79346;SDS011;68815;48.810;44.482;2023-10-13T13:08:03;10.8;;;3.6;;
79346;SDS011;68815;48.810;44.482;2023-10-13T13:11:05;10.8;;;3.4;;
79346;SDS011;68815;48.810;44.482;2023-10-13T13:14:07;11.6;;;3.9;;
79346;SDS011;68815;48.810;44.482;2023-10-13T13:17:09;9.5;;;3.4;;
79346;SDS011;68815;48.810;44.482;2023-10-13T13:20:12;16.1;;;4.8;;
79346;SDS011;68815;48.810;44.482;2023-10-13T13:23:14;13;;;4.6;;
79346;SDS011;68815;48.810;44.482;2023-10-13T13:26:16;14.5;;;4.2;;
79346;SDS011;68815;48.810;44.482;2023-10-13T13:29:18;12.2;;;4;;
79346;SDS011;68815;48.810;44.482;2023-10-13T13:32:20;45.7;;;18.1;;
79346;SDS011;68815;48.810;44.482;2023-10-13T13:35:22;10.6;;;3.8;;
79346;SDS011;68815;48.810;44.482;2023-10-13T13:38:24;10.4;;;4.1;;
79346;SDS011;68815;48.810;44.482;2023-10-13T13:41:26;10.7;;;3.9;;
79346;SDS011;68815;48.810;44.482;2023-10-13T13:44:28;12.1;;;4.4;;
79346;SDS011;68815;48.810;44.482;2023-10-13T13:47:32;15.8;;;4.8;;
79346;SDS011;68815;48.810;44.482;2023-10-13T13:50:37;13.2;;;5.4;;
79346;SDS011;68815;48.810;44.482;2023-10-13T13:53:39;19;;;7.7;;
79346;SDS011;68815;48.810;44.482;2023-10-13T13:56:41;20.1;;;7.3;;
79346;SDS011;68815;48.810;44.482;2023-10-13T13:59:43;14.8;;;5.8;;
79346;SDS011;68815;48.810;44.482;2023-10-13T14:02:45;19.8;;;6.1;;
79346;SDS011;68815;48.810;44.482;2023-10-13T14:05:47;13.9;;;5.4;;
79346;SDS011;68815;48.810;44.482;2023-10-13T14:08:49;13.5;;;4.9;;
79346;SDS011;68815;48.810;44.482;2023-10-13T14:11:52;12.5;;;4.8;;
79346;SDS011;68815;48.810;44.482;2023-10-13T14:14:55;17.1;;;4.9;;
79346;SDS011;68815;48.810;44.482;2023-10-13T14:17:58;14.6;;;4.7;;
79346;SDS011;68815;48.810;44.482;2023-10-13T14:21:00;16.9;;;5;;
79346;SDS011;68815;48.810;44.482;2023-10-13T14:24:02;11.6;;;4.6;;
79346;SDS011;68815;48.810;44.482;2023-10-13T14:27:05;10;;;4.5;;
79346;SDS011;68815;48.810;44.482;2023-10-13T14:30:10;10.4;;;4.2;;
79346;SDS011;68815;48.810;44.482;2023-10-13T14:33:13;13;;;4.1;;
79346;SDS011;68815;48.810;44.482;2023-10-13T14:36:16;9.3;;;4.1;;
79346;SDS011;68815;48.810;44.482;2023-10-13T14:39:18;12.4;;;4.2;;
79346;SDS011;68815;48.810;44.482;2023-10-13T14:42:21;13.8;;;5.3;;
79346;SDS011;68815;48.810;44.482;2023-10-13T14:45:22;15.8;;;5.6;;
79346;SDS011;68815;48.810;44.482;2023-10-13T14:48:25;14.9;;;5.5;;
79346;SDS011;68815;48.810;44.482;2023-10-13T14:51:28;17.2;;;5.1;;
79346;SDS011;68815;48.810;44.482;2023-10-13T14:54:30;13.3;;;5.5;;
79346;SDS011;68815;48.810;44.482;2023-10-13T14:57:33;13.1;;;5.2;;
79346;SDS011;68815;48.810;44.482;2023-10-13T15:00:35;12.3;;;5;;
79346;SDS011;68815;48.810;44.482;2023-10-13T15:03:38;14.1;;;5.6;;
79346;SDS011;68815;48.810;44.482;2023-10-13T15:06:40;11.6;;;4.8;;
79346;SDS011;68815;48.810;44.482;2023-10-13T15:09:44;16.4;;;5.6;;
79346;SDS011;68815;48.810;44.482;2023-10-13T15:12:46;13.6;;;5.6;;
79346;SDS011;68815;48.810;44.482;2023-10-13T15:15:48;15.6;;;5.1;;
79346;SDS011;68815;48.810;44.482;2023-10-13T15:18:51;11.3;;;4.9;;
79346;SDS011;68815;48.810;44.482;2023-10-13T15:21:54;12;;;4.4;;
79346;SDS011;68815;48.810;44.482;2023-10-13T15:24:56;11.1;;;5.1;;
79346;SDS011;68815;48.810;44.482;2023-10-13T15:27:59;12.3;;;5;;
79346;SDS011;68815;48.810;44.482;2023-10-13T15:31:01;16.9;;;5.2;;
79346;SDS011;68815;48.810;44.482;2023-10-13T15:34:04;9.7;;;4.3;;
79346;SDS011;68815;48.810;44.482;2023-10-13T15:37:10;10.9;;;4.6;;
79346;SDS011;68815;48.810;44.482;2023-10-13T15:40:13;16.1;;;4.9;;
79346;SDS011;68815;48.810;44.482;2023-10-13T15:43:15;10.8;;;4.6;;
79346;SDS011;68815;48.810;44.482;2023-10-13T15:46:19;8.6;;;4.4;;
79346;SDS011;68815;48.810;44.482;2023-10-13T15:49:21;12.5;;;5;;
79346;SDS011;68815;48.810;44.482;2023-10-13T15:52:25;9.9;;;4.7;;
79346;SDS011;68815;48.810;44.482;2023-10-13T15:55:28;11.7;;;5.3;;
79346;SDS011;68815;48.810;44.482;2023-10-13T15:58:32;10.8;;;4.5;;
79346;SDS011;68815;48.810;44.482;2023-10-13T16:01:34;12.1;;;5;;
79346;SDS011;68815;48.810;44.482;2023-10-13T16:04:44;11.5;;;5.1;;
79346;SDS011;68815;48.810;44.482;2023-10-13T16:07:47;12.4;;;5;;
79346;SDS011;68815;48.810;44.482;2023-10-13T16:10:50;12.7;;;5;;
79346;SDS011;68815;48.810;44.482;2023-10-13T16:13:53;12.2;;;5.1;;
79346;SDS011;68815;48.810;44.482;2023-10-13T16:16:55;10.5;;;5.1;;
79346;SDS011;68815;48.810;44.482;2023-10-13T16:19:57;9.8;;;5.1;;
79346;SDS011;68815;48.810;44.482;2023-10-13T16:23:00;11.1;;;5.2;;
79346;SDS011;68815;48.810;44.482;2023-10-13T16:26:03;12.4;;;5.3;;
79346;SDS011;68815;48.810;44.482;2023-10-13T16:29:05;10.6;;;5.2;;
79346;SDS011;68815;48.810;44.482;2023-10-13T16:32:07;12.7;;;5.3;;
79346;SDS011;68815;48.810;44.482;2023-10-13T16:35:10;12.4;;;5.3;;
79346;SDS011;68815;48.810;44.482;2023-10-13T16:38:12;11.4;;;5.5;;
79346;SDS011;68815;48.810;44.482;2023-10-13T16:41:15;12.5;;;5.3;;
79346;SDS011;68815;48.810;44.482;2023-10-13T16:44:17;11.5;;;5.4;;
79346;SDS011;68815;48.810;44.482;2023-10-13T16:47:19;11.5;;;5.8;;
79346;SDS011;68815;48.810;44.482;2023-10-13T16:50:21;13.8;;;5.8;;
79346;SDS011;68815;48.810;44.482;2023-10-13T16:53:24;12.4;;;6;;
79346;SDS011;68815;48.810;44.482;2023-10-13T16:56:26;14.8;;;6.3;;
79346;SDS011;68815;48.810;44.482;2023-10-13T16:59:29;17.5;;;6.4;;
79346;SDS011;68815;48.810;44.482;2023-10-13T17:02:31;15.1;;;6.6;;
79346;SDS011;68815;48.810;44.482;2023-10-13T17:05:41;15.3;;;6;;
79346;SDS011;68815;48.810;44.482;2023-10-13T17:08:50;15.9;;;5.5;;
79346;SDS011;68815;48.810;44.482;2023-10-13T17:11:55;12.8;;;5.3;;
79346;SDS011;68815;48.810;44.482;2023-10-13T17:14:58;12.4;;;5.5;;
79346;SDS011;68815;48.810;44.482;2023-10-13T17:18:01;11.9;;;5.5;;
79346;SDS011;68815;48.810;44.482;2023-10-13T17:21:13;14.1;;;5.4;;
79346;SDS011;68815;48.810;44.482;2023-10-13T17:24:16;13.7;;;5.6;;
79346;SDS011;68815;48.810;44.482;2023-10-13T17:27:21;11.3;;;5.4;;
79346;SDS011;68815;48.810;44.482;2023-10-13T17:30:24;13.5;;;6.1;;
79346;SDS011;68815;48.810;44.482;2023-10-13T17:33:27;13;;;6.6;;
79346;SDS011;68815;48.810;44.482;2023-10-13T17:36:29;12.5;;;5.6;;
79346;SDS011;68815;48.810;44.482;2023-10-13T17:39:31;11.9;;;5.5;;
79346;SDS011;68815;48.810;44.482;2023-10-13T17:42:34;11.2;;;5.4;;
79346;SDS011;68815;48.810;44.482;2023-10-13T17:45:37;10.1;;;5.6;;
79346;SDS011;68815;48.810;44.482;2023-10-13T17:48:39;13.3;;;5.8;;
79346;SDS011;68815;48.810;44.482;2023-10-13T17:51:41;10.8;;;5.6;;
79346;SDS011;68815;48.810;44.482;2023-10-13T17:54:45;13.7;;;6.2;;
79346;SDS011;68815;48.810;44.482;2023-10-13T17:57:48;12.2;;;6.1;;
79346;SDS011;68815;48.810;44.482;2023-10-13T18:00:53;13.5;;;6.4;;
79346;SDS011;68815;48.810;44.482;2023-10-13T18:03:56;12.4;;;6.3;;
79346;SDS011;68815;48.810;44.482;2023-10-13T18:06:58;13.1;;;6.6;;
79346;SDS011;68815;48.810;44.482;2023-10-13T18:10:00;14.1;;;6;;
79346;SDS011;68815;48.810;44.482;2023-10-13T18:13:03;16.1;;;6.7;;
79346;SDS011;68815;48.810;44.482;2023-10-13T18:16:13;13.1;;;6.5;;
79346;SDS011;68815;48.810;44.482;2023-10-13T18:19:17;13.8;;;6.8;;
79346;SDS011;68815;48.810;44.482;2023-10-13T18:22:19;14.5;;;6.4;;
79346;SDS011;68815;48.810;44.482;2023-10-13T18:25:21;12.7;;;6.6;;
79346;SDS011;68815;48.810;44.482;2023-10-13T18:28:23;14.4;;;6.2;;
79346;SDS011;68815;48.810;44.482;2023-10-13T18:31:26;13.5;;;6.2;;
79346;SDS011;68815;48.810;44.482;2023-10-13T18:34:28;13.4;;;5.8;;
79346;SDS011;68815;48.810;44.482;2023-10-13T18:37:30;12.5;;;6;;